Report METAR

 

LIBD - Bari/Palese Macc, Italy
Distance from station: NNW 20km
Dati ricevuti: 25/09/2022 00:50
Cielo sereno o poche nubi
Cielo sereno o poche nubi
 Vento da SW
Vento: SW 9 km/h
Temperatura: 16°C
P.to Rugiada: 12°C
Umidità: 77%
Pressione: 1017 hPa
Riassunto: Cielo sereno o poche nubi
Visibility: superiore a 10 km
2022/09/24 22:50 LIBD 242250Z 22005KT CAVOK 16/12 Q1017
LIBV - Gioia Del Colle, Italy
Distance from station: SSE 21km
Dati ricevuti: 24/09/2022 23:55
Poco Nuvoloso
Poco Nuvoloso
 Vento da SSE
Vento: SSE 19 km/h
Temperatura: 17°C
P.to Rugiada: 15°C
Umidità: 88%
Pressione: 1017 hPa
Nuvole: Poco Nuvoloso
Visibility: 10 km
Cloud details: Poco Nuvoloso 914 m
2022/09/24 21:55 LIBV 242155Z 16010KT 9999 FEW030 17/15 Q1017